createdAt,value
2023-01-23T03:41:12.036Z,40.25
2023-01-23T06:43:10.969Z,43.10
2023-01-23T06:53:17.003Z,44.00
2023-01-23T07:03:21.353Z,43.37
2023-01-23T07:13:25.987Z,42.38
2023-01-23T07:23:30.160Z,43.80
2023-01-23T07:33:34.742Z,41.80
2023-01-23T07:43:37.698Z,40.50
2023-01-23T07:53:42.056Z,40.17
2023-01-23T08:03:45.058Z,39.15
2023-01-23T08:13:51.967Z,40.28
2023-01-23T08:23:55.022Z,39.33
2023-01-23T08:33:59.397Z,38.13
2023-01-23T08:44:03.947Z,37.17
2023-01-23T08:54:08.390Z,36.35
2023-01-23T09:04:11.333Z,35.63
2023-01-23T09:14:15.691Z,36.10
2023-01-23T09:24:18.619Z,36.30
2023-01-23T09:34:22.973Z,34.43
2023-01-23T09:44:34.128Z,35.87
2023-01-23T09:54:44.952Z,34.00
2023-01-23T10:04:49.214Z,33.42
2023-01-23T10:15:19.691Z,32.10
2023-01-23T10:25:27.705Z,31.50
2023-01-23T10:35:47.320Z,33.03
2023-01-23T10:45:51.366Z,31.83
2023-01-23T10:55:59.720Z,30.33
2023-01-23T11:06:05.121Z,32.47
2023-01-23T11:16:17.008Z,31.83
2023-01-23T11:26:33.759Z,30.57
2023-01-23T11:36:53.206Z,28.27
2023-01-23T11:47:18.433Z,28.25
2023-01-23T11:57:34.973Z,27.00
2023-01-23T12:07:58.044Z,26.03
2023-01-23T12:18:16.225Z,25.73
2023-01-23T12:28:32.341Z,25.13
2023-01-23T12:38:48.432Z,26.10
2023-01-23T12:48:55.365Z,25.63
2023-01-23T12:59:09.243Z,25.33
2023-01-23T13:09:23.894Z,23.47
2023-01-23T13:19:47.125Z,25.45
2023-01-23T13:29:51.842Z,25.00
2023-01-23T13:40:15.760Z,25.13
2023-01-23T14:22:02.382Z,25.90
2023-01-23T14:32:21.018Z,25.30
2023-01-23T14:42:29.138Z,27.63
2023-01-23T14:52:32.845Z,27.10
2023-01-23T15:02:37.680Z,29.10
2023-01-23T15:12:49.029Z,27.05
2023-01-23T15:22:53.668Z,26.67
2023-01-23T15:32:58.673Z,27.83
2023-01-23T15:43:08.382Z,23.83
2023-01-23T15:53:13.864Z,21.73
2023-01-23T16:03:18.250Z,21.23
2023-01-23T16:13:21.319Z,23.25
2023-01-23T16:23:26.660Z,23.50
2023-01-23T16:33:29.674Z,23.33
2023-01-23T16:43:35.510Z,22.85
2023-01-23T16:53:40.683Z,21.83
2023-01-23T17:03:45.834Z,23.40
2023-01-23T17:13:49.816Z,24.67
2023-01-23T17:23:54.299Z,25.10
2023-01-23T17:33:57.394Z,26.20
2023-01-23T17:44:01.855Z,29.27
2023-01-23T17:54:05.820Z,25.25
2023-01-23T18:04:17.031Z,27.85
2023-01-23T18:14:35.571Z,26.65
2023-01-23T18:24:40.566Z,25.93
2023-01-23T18:35:06.616Z,26.45
2023-01-23T18:45:16.585Z,26.00
2023-01-23T18:55:31.788Z,24.63
2023-01-23T19:05:35.355Z,24.05
2023-01-23T19:15:45.870Z,23.17
2023-01-23T19:25:49.319Z,24.55
2023-01-23T19:35:56.713Z,25.20
2023-01-23T19:46:00.888Z,24.60
2023-01-23T19:56:05.947Z,25.30
2023-01-23T20:06:09.949Z,27.00
2023-01-23T20:16:20.682Z,27.70
2023-01-23T20:26:24.543Z,27.88
2023-01-23T20:36:29.090Z,29.00
2023-01-23T20:46:32.325Z,29.35
2023-01-23T20:56:37.198Z,26.42
2023-01-23T21:06:40.434Z,27.00
2023-01-23T21:16:44.908Z,27.67
2023-01-23T21:26:48.174Z,28.33
2023-01-23T21:36:53.546Z,29.77
2023-01-23T21:46:57.019Z,30.88
2023-01-23T21:57:01.415Z,29.83
2023-01-23T22:07:04.529Z,29.80
2023-01-23T22:17:09.380Z,29.70
2023-01-23T22:27:12.611Z,32.88
2023-01-23T22:37:17.270Z,31.98
2023-01-23T22:47:20.372Z,31.90
2023-01-23T22:57:25.035Z,33.03
2023-01-23T23:07:28.373Z,32.97
2023-01-23T23:17:32.898Z,30.67
2023-01-23T23:27:35.947Z,28.30
2023-01-23T23:37:40.410Z,27.43
2023-01-23T23:47:43.395Z,28.53
2023-01-23T23:57:47.751Z,28.07
